Houston, Texas
Traffic Map
Current Weather Conditions
Houston, Texas
Few Clouds
Few Clouds
46°
Feels Like: 42°
Wind Chill: 42° Ceiling: Unl
Heat Index: 46° Visibility: 10mi
Dew Point: 23° Wind: 7mph
Humidity: 40% Direction: 300° (WNW)
Pressure: 30.38in Gusts: 0mph
Raw Report DataKIAH 142353Z 30006KT 10SM FEW250 08/M05 A3038 RMK AO2 SLP287 T00781050 10117 20078 53003
Traffic Incident Summary
Active as of:
Severity:
Category:
InformationThere was an issue retrieving the traffic information for this location. Please try a different location or try again shortly.
Advertisements